createdAt,value
2023-01-09T00:00:01.838Z,6.97
2023-01-09T00:02:29.527Z,7.63
2023-01-09T00:04:58.491Z,7.77
2023-01-09T00:07:26.193Z,7.00
2023-01-09T00:09:53.869Z,7.30
2023-01-09T00:12:21.530Z,8.60
2023-01-09T00:14:49.171Z,7.23
2023-01-09T00:17:16.808Z,7.17
2023-01-09T00:19:44.655Z,7.37
2023-01-09T00:22:13.646Z,6.90
2023-01-09T00:24:41.704Z,7.07
2023-01-09T00:27:09.501Z,6.77
2023-01-09T00:29:37.099Z,6.17
2023-01-09T00:32:10.036Z,6.53
2023-01-09T00:34:38.395Z,6.07
2023-01-09T00:37:11.966Z,6.63
2023-01-09T00:39:41.442Z,6.20
2023-01-09T00:42:11.736Z,6.17
2023-01-09T00:44:42.584Z,6.13
2023-01-09T00:47:16.991Z,7.03
2023-01-09T00:49:45.596Z,7.10
2023-01-09T00:52:15.114Z,6.90
2023-01-09T00:54:48.635Z,5.73
2023-01-09T00:57:21.493Z,3.93
2023-01-09T00:59:52.308Z,1.73
2023-01-09T01:02:20.824Z,1.73
2023-01-09T01:05:06.144Z,2.90
2023-01-09T01:07:40.139Z,2.50
2023-01-09T01:10:16.432Z,1.70
2023-01-09T01:12:46.546Z,3.60
2023-01-09T01:15:15.891Z,2.43
2023-01-09T01:17:44.782Z,1.67
2023-01-09T01:20:16.025Z,1.57
2023-01-09T01:22:43.975Z,1.30
2023-01-09T01:25:15.281Z,0.63
2023-01-09T01:27:43.597Z,0.60
2023-01-09T01:30:13.532Z,0.40
2023-01-09T01:32:42.119Z,0.70
2023-01-09T01:35:11.034Z,0.70
2023-01-09T01:37:40.123Z,0.60
2023-01-09T01:40:10.955Z,1.43
2023-01-09T01:42:38.734Z,0.83
2023-01-09T01:47:41.976Z,1.20
2023-01-09T01:50:13.783Z,0.80
2023-01-09T01:52:43.056Z,0.80
2023-01-09T01:55:12.320Z,2.70
2023-01-09T01:57:42.525Z,0.70
2023-01-09T02:00:12.447Z,0.60
2023-01-09T02:05:31.871Z,0.30
2023-01-09T02:07:59.884Z,0.30
2023-01-09T02:12:55.282Z,0.40
2023-01-09T02:15:23.380Z,0.37
2023-01-09T02:20:47.585Z,1.60
2023-01-09T02:25:51.748Z,0.30
2023-01-09T02:31:06.739Z,0.10
2023-01-09T02:33:36.752Z,2.20
2023-01-09T02:38:39.821Z,0.65
2023-01-09T02:43:36.736Z,0.20
2023-01-09T02:46:06.040Z,0.10
2023-01-09T02:48:33.800Z,0.73
2023-01-09T02:51:10.398Z,1.40
2023-01-09T02:53:39.746Z,0.80
2023-01-09T02:58:50.861Z,0.30
2023-01-09T03:01:27.866Z,0.20
2023-01-09T03:04:02.682Z,0.40
2023-01-09T03:06:35.604Z,0.20
2023-01-09T03:09:06.557Z,0.27
2023-01-09T03:11:36.977Z,0.20
2023-01-09T03:14:08.358Z,0.10
2023-01-09T03:16:38.419Z,0.17
2023-01-09T03:19:08.847Z,0.17
2023-01-09T03:21:36.968Z,0.23
2023-01-09T03:24:05.174Z,0.27
2023-01-09T03:26:32.957Z,0.20
2023-01-09T03:29:00.935Z,1.40
2023-01-09T03:31:28.621Z,0.23
2023-01-09T03:33:57.688Z,0.17
2023-01-09T03:36:25.746Z,0.67
2023-01-09T03:38:53.616Z,0.40
2023-01-09T03:41:21.287Z,1.60
2023-01-09T03:43:49.383Z,0.30
2023-01-09T03:46:17.635Z,0.73
2023-01-09T03:48:45.628Z,0.23
2023-01-09T03:51:14.573Z,0.20
2023-01-09T03:53:42.319Z,0.37
2023-01-09T03:56:09.941Z,0.47
2023-01-09T03:58:37.623Z,1.17
2023-01-09T04:01:09.379Z,0.20
2023-01-09T04:03:37.275Z,0.23
2023-01-09T04:06:05.434Z,0.40
2023-01-09T04:08:34.497Z,0.47
2023-01-09T04:11:02.236Z,1.40
2023-01-09T04:13:29.959Z,0.30
2023-01-09T04:15:57.576Z,1.07
2023-01-09T04:18:25.277Z,0.90
2023-01-09T04:20:55.211Z,0.57
2023-01-09T04:23:23.018Z,0.17
2023-01-09T04:25:51.963Z,0.70
2023-01-09T04:28:19.621Z,0.30
2023-01-09T04:30:47.227Z,0.47
2023-01-09T04:33:14.878Z,0.77
2023-01-09T04:35:42.541Z,1.17
2023-01-09T04:38:10.183Z,0.30
2023-01-09T04:40:37.778Z,0.20
2023-01-09T04:43:06.740Z,2.00
2023-01-09T04:45:34.401Z,0.43
2023-01-09T04:48:02.094Z,0.33
2023-01-09T04:50:31.336Z,1.03
2023-01-09T04:52:59.163Z,1.20
2023-01-09T04:55:26.768Z,0.83
2023-01-09T04:57:54.540Z,1.47
2023-01-09T05:00:23.644Z,0.40
2023-01-09T05:02:51.533Z,0.50
2023-01-09T05:05:19.517Z,0.80
2023-01-09T05:07:47.280Z,2.30
2023-01-09T05:10:14.993Z,0.60
2023-01-09T05:12:42.676Z,0.40
2023-01-09T05:15:10.943Z,1.37
2023-01-09T05:17:39.927Z,1.90
2023-01-09T05:20:08.302Z,0.77
2023-01-09T05:22:36.702Z,1.23
2023-01-09T05:30:21.492Z,1.43
2023-01-09T05:32:50.621Z,1.70
2023-01-09T05:35:18.661Z,1.27
2023-01-09T05:37:46.270Z,1.10
2023-01-09T05:40:14.760Z,0.70
2023-01-09T05:42:43.770Z,1.70
2023-01-09T05:45:12.695Z,1.90
2023-01-09T05:47:40.416Z,2.60
2023-01-09T05:50:10.854Z,0.93
2023-01-09T05:52:38.665Z,3.07
2023-01-09T05:55:07.558Z,1.47
2023-01-09T05:57:35.324Z,1.30
2023-01-09T06:00:05.929Z,2.70
2023-01-09T06:02:33.778Z,1.70
2023-01-09T06:05:01.451Z,1.60
2023-01-09T06:07:30.379Z,1.17
2023-01-09T06:09:57.961Z,2.57
2023-01-09T06:12:26.099Z,2.50
2023-01-09T06:14:53.772Z,5.80
2023-01-09T06:17:21.399Z,7.47
2023-01-09T06:19:49.012Z,1.40
2023-01-09T06:22:16.638Z,3.70
2023-01-09T06:24:45.592Z,2.83
2023-01-09T06:27:13.694Z,4.77
2023-01-09T06:29:41.695Z,1.90
2023-01-09T06:32:09.329Z,4.20
2023-01-09T06:34:36.956Z,2.67
2023-01-09T06:37:04.595Z,3.67
2023-01-09T06:39:33.925Z,3.73
2023-01-09T06:42:03.358Z,5.23
2023-01-09T06:44:31.037Z,2.83
2023-01-09T06:46:58.670Z,3.27
2023-01-09T06:49:26.509Z,6.50
2023-01-09T06:51:54.294Z,5.67
2023-01-09T06:54:22.532Z,2.57
2023-01-09T06:56:50.271Z,1.27
2023-01-09T06:59:19.438Z,4.17
2023-01-09T07:01:47.268Z,4.50
2023-01-09T07:04:17.649Z,0.87
2023-01-09T07:06:48.229Z,2.30
2023-01-09T07:09:15.947Z,5.77
2023-01-09T07:11:43.916Z,2.30
2023-01-09T07:14:11.611Z,4.13
2023-01-09T07:16:40.886Z,2.40
2023-01-09T07:19:08.572Z,4.67
2023-01-09T07:21:36.269Z,1.40
2023-01-09T07:24:04.064Z,1.43
2023-01-09T07:29:18.560Z,4.70
2023-01-09T07:31:47.710Z,2.67
2023-01-09T07:34:15.299Z,3.30
2023-01-09T07:36:46.334Z,1.47
2023-01-09T07:39:14.083Z,1.77
2023-01-09T07:41:41.700Z,3.53
2023-01-09T07:44:11.062Z,3.83
2023-01-09T07:46:39.047Z,4.53
2023-01-09T07:49:08.382Z,2.57
2023-01-09T07:51:39.000Z,2.63
2023-01-09T07:54:06.969Z,5.07
2023-01-09T07:56:34.542Z,1.83
2023-01-09T07:59:02.289Z,2.97
2023-01-09T08:01:29.969Z,3.83
2023-01-09T08:03:57.628Z,1.80
2023-01-09T08:06:26.602Z,1.10
2023-01-09T08:08:54.238Z,5.17
2023-01-09T08:11:21.875Z,3.07
2023-01-09T08:13:49.397Z,3.40
2023-01-09T08:16:17.080Z,1.67
2023-01-09T08:18:44.779Z,1.90
2023-01-09T08:21:12.434Z,2.33
2023-01-09T08:23:41.399Z,2.73
2023-01-09T08:26:09.269Z,2.73
2023-01-09T08:28:36.836Z,3.83
2023-01-09T08:31:04.580Z,2.63
2023-01-09T08:33:32.722Z,1.80
2023-01-09T08:36:00.333Z,2.17
2023-01-09T08:38:27.966Z,2.90
2023-01-09T08:40:56.973Z,1.57
2023-01-09T08:43:42.086Z,1.40
2023-01-09T08:46:34.793Z,2.17
2023-01-09T08:49:02.574Z,1.13
2023-01-09T08:51:30.486Z,1.50
2023-01-09T08:53:58.042Z,2.43
2023-01-09T08:56:27.052Z,3.17
2023-01-09T08:58:56.994Z,0.60
2023-01-09T09:01:24.731Z,1.63
2023-01-09T09:03:52.437Z,1.90
2023-01-09T09:06:20.129Z,2.83
2023-01-09T09:08:47.732Z,1.67
2023-01-09T09:11:15.341Z,2.03
2023-01-09T09:13:44.307Z,1.03
2023-01-09T09:16:12.127Z,1.53
2023-01-09T09:18:39.958Z,1.63
2023-01-09T09:21:08.291Z,1.43
2023-01-09T09:23:37.210Z,3.17
2023-01-09T09:26:05.076Z,2.73
2023-01-09T09:28:32.670Z,1.40
2023-01-09T09:31:01.690Z,5.87
2023-01-09T09:33:30.247Z,1.87
2023-01-09T09:35:59.492Z,1.77
2023-01-09T09:38:27.542Z,0.53
2023-01-09T09:41:38.588Z,2.10
2023-01-09T09:44:52.736Z,0.70
2023-01-09T09:47:33.045Z,1.43
2023-01-09T09:50:07.459Z,1.40
2023-01-09T09:52:40.835Z,5.60
2023-01-09T09:55:16.372Z,2.00
2023-01-09T09:57:45.135Z,4.97
2023-01-09T10:00:17.381Z,16.93
2023-01-09T10:02:51.641Z,6.67
2023-01-09T10:05:22.513Z,4.13
2023-01-09T10:07:51.420Z,3.00
2023-01-09T10:10:24.161Z,4.50
2023-01-09T10:12:54.689Z,5.57
2023-01-09T10:15:38.987Z,5.90
2023-01-09T10:18:17.625Z,9.10
2023-01-09T10:20:56.573Z,8.97
2023-01-09T10:23:36.044Z,8.70
2023-01-09T10:26:08.202Z,3.90
2023-01-09T10:28:51.335Z,3.27
2023-01-09T10:31:27.336Z,5.73
2023-01-09T10:34:04.786Z,7.30
2023-01-09T10:36:49.405Z,2.73
2023-01-09T10:39:20.008Z,4.97
2023-01-09T10:41:53.791Z,4.47
2023-01-09T10:44:25.299Z,3.20
2023-01-09T10:46:55.290Z,4.00
2023-01-09T10:49:25.422Z,5.23
2023-01-09T10:51:54.240Z,7.67
2023-01-09T10:54:23.713Z,3.60
2023-01-09T10:56:58.417Z,4.27
2023-01-09T10:59:26.360Z,2.03
2023-01-09T11:01:54.704Z,2.93
2023-01-09T11:04:28.265Z,2.20
2023-01-09T11:06:59.824Z,3.17
2023-01-09T11:09:27.504Z,3.00
2023-01-09T11:11:55.307Z,2.20
2023-01-09T11:14:31.112Z,3.20
2023-01-09T11:17:01.356Z,4.37
2023-01-09T11:19:33.226Z,2.40
2023-01-09T11:22:08.684Z,1.60
2023-01-09T11:24:36.414Z,2.60
2023-01-09T11:27:25.136Z,6.83
2023-01-09T11:30:26.439Z,5.50
2023-01-09T11:32:55.424Z,2.93
2023-01-09T11:35:28.182Z,4.67
2023-01-09T11:38:03.566Z,3.67
2023-01-09T11:40:36.832Z,5.97
2023-01-09T11:43:12.566Z,2.27
2023-01-09T11:45:53.191Z,1.90
2023-01-09T11:48:35.965Z,2.10
2023-01-09T11:51:06.947Z,2.47
2023-01-09T11:53:47.290Z,2.23
2023-01-09T11:56:15.862Z,4.00
2023-01-09T11:58:43.674Z,2.93
2023-01-09T12:01:31.553Z,4.37
2023-01-09T12:04:10.365Z,2.90
2023-01-09T12:06:45.104Z,2.50
2023-01-09T12:09:18.812Z,4.30
2023-01-09T12:11:51.592Z,4.17
2023-01-09T12:14:30.098Z,0.70
2023-01-09T12:17:21.522Z,1.60
2023-01-09T12:20:01.787Z,1.80
2023-01-09T12:22:38.251Z,1.30
2023-01-09T12:25:23.426Z,1.90
2023-01-09T12:28:04.789Z,4.63
2023-01-09T12:30:45.597Z,3.33
2023-01-09T12:33:23.200Z,1.37
2023-01-09T12:35:57.251Z,2.53
2023-01-09T12:38:48.845Z,0.53
2023-01-09T12:41:54.260Z,1.53
2023-01-09T12:44:42.427Z,2.90
2023-01-09T12:47:19.633Z,1.80
2023-01-09T12:49:52.851Z,1.63
2023-01-09T12:52:23.396Z,1.90
2023-01-09T12:54:54.804Z,2.60
2023-01-09T12:57:27.829Z,4.27
2023-01-09T12:59:57.981Z,1.10
2023-01-09T13:02:30.590Z,1.73
2023-01-09T13:05:00.861Z,1.30
2023-01-09T13:07:31.496Z,2.70
2023-01-09T13:10:06.339Z,1.37
2023-01-09T13:12:37.073Z,1.63
2023-01-09T13:15:07.693Z,0.93
2023-01-09T13:17:40.190Z,0.90
2023-01-09T13:20:19.310Z,0.40
2023-01-09T13:22:50.223Z,0.67
2023-01-09T13:25:32.379Z,1.60
2023-01-09T13:28:02.129Z,0.53
2023-01-09T13:30:59.939Z,1.03
2023-01-09T13:33:29.629Z,4.13
2023-01-09T13:35:59.182Z,1.67
2023-01-09T13:38:28.820Z,1.00
2023-01-09T13:41:30.341Z,1.17
2023-01-09T13:43:59.828Z,0.40
2023-01-09T13:46:36.797Z,0.50
2023-01-09T13:49:04.871Z,1.27
2023-01-09T13:51:58.803Z,0.93
2023-01-09T13:55:01.665Z,1.47
2023-01-09T13:57:33.019Z,1.43
2023-01-09T14:00:39.456Z,2.10
2023-01-09T14:03:20.405Z,1.57
2023-01-09T14:06:11.920Z,1.97
2023-01-09T14:08:41.773Z,2.53
2023-01-09T14:11:10.029Z,4.43
2023-01-09T14:13:42.485Z,2.50
2023-01-09T14:16:17.365Z,1.53
2023-01-09T14:18:50.462Z,1.07
2023-01-09T14:21:18.799Z,1.30
2023-01-09T14:23:56.051Z,2.33
2023-01-09T14:26:27.468Z,2.63
2023-01-09T14:29:45.531Z,2.10
2023-01-09T14:32:39.002Z,2.27
2023-01-09T14:35:14.045Z,1.77
2023-01-09T14:37:41.963Z,1.70
2023-01-09T14:40:17.337Z,2.13
2023-01-09T14:42:46.126Z,1.30
2023-01-09T14:45:20.929Z,3.00
2023-01-09T14:47:51.338Z,3.20
2023-01-09T14:50:26.727Z,2.53
2023-01-09T14:52:56.776Z,2.33
2023-01-09T14:55:28.057Z,2.07
2023-01-09T14:57:56.988Z,4.93
2023-01-09T15:00:26.237Z,3.07
2023-01-09T15:02:54.460Z,5.20
2023-01-09T15:05:24.131Z,3.47
2023-01-09T15:07:54.336Z,2.87
2023-01-09T15:10:23.506Z,5.93
2023-01-09T15:12:52.896Z,4.77
2023-01-09T15:15:21.747Z,3.10
2023-01-09T15:17:55.315Z,6.07
2023-01-09T15:20:25.471Z,3.03
2023-01-09T15:22:54.848Z,4.90
2023-01-09T15:25:33.827Z,4.50
2023-01-09T15:28:25.141Z,7.57
2023-01-09T15:30:56.419Z,4.47
2023-01-09T15:33:25.628Z,5.80
2023-01-09T15:36:00.028Z,7.47
2023-01-09T15:38:28.816Z,8.10
2023-01-09T15:41:00.852Z,5.87
2023-01-09T15:43:30.545Z,5.77
2023-01-09T15:45:58.699Z,18.43
2023-01-09T15:48:30.655Z,9.83
2023-01-09T15:51:01.825Z,11.57
2023-01-09T15:53:30.394Z,12.53
2023-01-09T15:56:16.130Z,11.03
2023-01-09T15:58:47.185Z,9.23
2023-01-09T16:01:30.785Z,7.93
2023-01-09T16:04:05.975Z,4.87
2023-01-09T16:06:35.573Z,6.83
2023-01-09T16:09:03.864Z,3.17
2023-01-09T16:11:33.737Z,2.00
2023-01-09T16:14:13.381Z,3.57
2023-01-09T16:16:41.819Z,4.77
2023-01-09T16:19:42.504Z,1.37
2023-01-09T16:22:21.700Z,2.60
2023-01-09T16:24:53.405Z,3.30
2023-01-09T16:27:23.802Z,1.30
2023-01-09T16:29:57.407Z,0.90
2023-01-09T16:32:27.727Z,0.70
2023-01-09T16:34:58.150Z,0.57
2023-01-09T16:37:26.630Z,1.20
2023-01-09T16:40:24.077Z,0.40
2023-01-09T16:43:01.053Z,0.73
2023-01-09T16:45:30.386Z,1.63
2023-01-09T16:47:58.451Z,0.27
2023-01-09T16:50:27.755Z,0.70
2023-01-09T16:52:56.948Z,1.47
2023-01-09T16:55:24.795Z,0.30
2023-01-09T16:57:52.503Z,0.20
2023-01-09T17:00:22.058Z,2.10
2023-01-09T17:02:49.787Z,1.07
2023-01-09T17:05:17.582Z,0.60
2023-01-09T17:07:46.751Z,0.50
2023-01-09T17:10:20.772Z,0.57
2023-01-09T17:12:49.541Z,0.47
2023-01-09T17:15:17.807Z,2.10
2023-01-09T17:17:45.774Z,0.57
2023-01-09T17:20:18.163Z,0.93
2023-01-09T17:22:47.115Z,1.70
2023-01-09T17:25:33.542Z,1.23
2023-01-09T17:28:19.284Z,0.60
2023-01-09T17:30:47.902Z,0.60
2023-01-09T17:36:03.139Z,2.23
2023-01-09T17:38:32.282Z,3.73
2023-01-09T17:40:59.959Z,1.30
2023-01-09T17:43:27.629Z,1.60
2023-01-09T17:45:55.417Z,1.17
2023-01-09T17:48:25.282Z,1.90
2023-01-09T17:50:52.981Z,1.53
2023-01-09T17:53:22.698Z,2.87
2023-01-09T17:55:52.045Z,1.80
2023-01-09T17:58:27.084Z,2.97
2023-01-09T18:06:14.368Z,2.47
2023-01-09T18:11:18.277Z,1.47
2023-01-09T18:13:48.380Z,2.20
2023-01-09T18:18:45.354Z,2.70
2023-01-09T18:23:43.091Z,1.13
2023-01-09T18:31:34.302Z,2.43
2023-01-09T18:34:04.260Z,2.30
2023-01-09T18:39:01.320Z,3.00
2023-01-09T18:43:58.444Z,2.53
2023-01-09T18:51:21.380Z,4.85
2023-01-09T18:56:18.462Z,2.47
2023-01-09T19:01:15.470Z,3.67
2023-01-09T19:11:34.709Z,9.70
2023-01-09T19:16:32.596Z,28.83
2023-01-09T19:21:30.435Z,3.87
2023-01-09T19:26:27.452Z,2.87
2023-01-09T19:31:24.455Z,5.30
2023-01-09T19:33:55.529Z,2.77
2023-01-09T19:36:25.351Z,4.00
2023-01-09T19:41:22.381Z,3.20
2023-01-09T19:46:17.498Z,4.13
2023-01-09T19:51:14.437Z,5.50
2023-01-09T19:56:11.357Z,5.10
2023-01-09T20:01:38.814Z,5.93
2023-01-09T20:04:13.799Z,9.20
2023-01-09T20:06:41.512Z,12.83
2023-01-09T20:11:36.447Z,33.05
2023-01-09T20:16:41.404Z,23.23
2023-01-09T20:21:38.365Z,2.00
2023-01-09T20:26:35.477Z,3.30
2023-01-09T20:34:00.447Z,3.70
2023-01-09T20:38:57.337Z,6.92
2023-01-09T20:43:55.305Z,3.23
2023-01-09T20:49:02.994Z,2.60
2023-01-09T20:51:30.879Z,2.07
2023-01-09T20:59:12.797Z,5.07
2023-01-09T21:09:21.540Z,3.00
2023-01-09T21:16:54.030Z,2.86
2023-01-09T21:21:53.609Z,4.03
2023-01-09T21:26:53.434Z,3.07
2023-01-09T21:31:50.496Z,4.90
2023-01-09T21:36:48.879Z,3.77
2023-01-09T21:41:44.418Z,2.07
2023-01-09T21:49:26.455Z,2.30
2023-01-09T21:51:56.467Z,3.40
2023-01-09T21:56:53.449Z,1.80
2023-01-09T21:59:22.803Z,1.50
2023-01-09T22:01:50.817Z,1.47
2023-01-09T22:04:20.584Z,2.03
2023-01-09T22:06:48.281Z,3.20
2023-01-09T22:09:16.435Z,1.83
2023-01-09T22:11:44.713Z,2.60
2023-01-09T22:14:13.250Z,1.53
2023-01-09T22:16:43.482Z,1.40
2023-01-09T22:19:11.448Z,1.97
2023-01-09T22:21:39.044Z,2.10
2023-01-09T22:24:07.807Z,1.47
2023-01-09T22:26:35.913Z,0.87
2023-01-09T22:29:03.510Z,1.30
2023-01-09T22:31:32.775Z,2.77
2023-01-09T22:34:03.304Z,1.00
2023-01-09T22:36:31.749Z,0.80
2023-01-09T22:39:00.782Z,2.13
2023-01-09T22:41:29.859Z,1.50
2023-01-09T22:43:57.859Z,1.53
2023-01-09T22:46:25.810Z,2.57
2023-01-09T22:48:53.393Z,1.47
2023-01-09T22:51:22.799Z,2.03
2023-01-09T22:53:51.176Z,1.33
2023-01-09T22:56:20.529Z,1.67
2023-01-09T22:58:51.565Z,2.53
2023-01-09T23:01:19.707Z,1.10
2023-01-09T23:03:47.783Z,2.20
2023-01-09T23:06:16.901Z,2.50
2023-01-09T23:08:46.787Z,1.40
2023-01-09T23:11:16.202Z,2.17
2023-01-09T23:13:46.962Z,1.47
2023-01-09T23:16:18.546Z,1.70
2023-01-09T23:18:48.223Z,0.90
2023-01-09T23:21:16.553Z,0.87
2023-01-09T23:23:45.443Z,2.10
2023-01-09T23:26:14.895Z,1.30
2023-01-09T23:28:42.589Z,2.17
2023-01-09T23:31:10.333Z,1.30
2023-01-09T23:33:38.021Z,2.17
2023-01-09T23:36:06.490Z,1.40
2023-01-09T23:38:35.349Z,1.00
2023-01-09T23:41:03.182Z,1.13
2023-01-09T23:43:31.782Z,1.13
2023-01-09T23:45:59.548Z,1.40
2023-01-09T23:48:27.676Z,0.60
2023-01-09T23:50:59.499Z,1.20
2023-01-09T23:53:27.563Z,0.70
2023-01-09T23:55:55.879Z,1.07
2023-01-09T23:58:23.604Z,0.80
